createdAt,value
2019-05-03T00:00:12.055Z,29.70
2019-05-03T00:03:09.181Z,29.70
2019-05-03T00:05:57.512Z,29.80
2019-05-03T00:08:34.361Z,29.90
2019-05-03T00:11:12.584Z,29.90
2019-05-03T00:13:49.437Z,30.00
2019-05-03T00:16:32.537Z,30.10
2019-05-03T00:19:09.789Z,30.30
2019-05-03T00:21:46.793Z,30.40
2019-05-03T00:24:26.755Z,30.40
2019-05-03T00:27:03.584Z,30.40
2019-05-03T00:29:41.643Z,30.50
2019-05-03T00:32:19.152Z,30.50
2019-05-03T00:34:57.059Z,30.60
2019-05-03T00:37:35.411Z,30.70
2019-05-03T00:40:14.039Z,30.80
2019-05-03T00:42:51.756Z,30.90
2019-05-03T00:45:28.558Z,31.00
2019-05-03T00:48:05.345Z,31.30
2019-05-03T00:50:45.035Z,31.40
2019-05-03T00:53:22.436Z,31.50
2019-05-03T00:55:59.401Z,31.40
2019-05-03T00:58:37.919Z,31.60
2019-05-03T01:01:15.034Z,31.80
2019-05-03T01:03:57.426Z,32.00
2019-05-03T01:06:34.134Z,32.00
2019-05-03T01:09:17.659Z,32.20
2019-05-03T01:11:54.832Z,32.30
2019-05-03T01:14:31.784Z,32.50
2019-05-03T01:17:08.389Z,32.50
2019-05-03T01:19:45.624Z,32.60
2019-05-03T01:22:22.586Z,32.80
2019-05-03T01:24:59.715Z,32.70
2019-05-03T01:27:36.636Z,32.80
2019-05-03T01:30:13.641Z,32.90
2019-05-03T01:32:52.219Z,33.10
2019-05-03T01:38:11.638Z,33.20
2019-05-03T01:40:47.359Z,33.20
2019-05-03T01:43:24.323Z,33.40
2019-05-03T01:46:02.733Z,33.40
2019-05-03T01:48:57.328Z,33.60
2019-05-03T01:51:53.258Z,33.50
2019-05-03T01:54:32.008Z,33.80
2019-05-03T01:57:08.318Z,33.80
2019-05-03T01:59:45.132Z,34.10
2019-05-03T02:02:41.842Z,34.10
2019-05-03T02:05:42.864Z,34.20
2019-05-03T02:08:21.880Z,34.10
2019-05-03T02:10:58.994Z,34.40
2019-05-03T02:13:35.719Z,34.40
2019-05-03T02:16:12.370Z,34.60
2019-05-03T02:18:48.978Z,34.60
2019-05-03T02:21:25.946Z,34.40
2019-05-03T02:24:02.689Z,34.40
2019-05-03T02:26:39.093Z,34.60
2019-05-03T02:29:16.074Z,34.70
2019-05-03T02:31:53.501Z,34.90
2019-05-03T02:34:32.760Z,35.10
2019-05-03T02:37:08.374Z,35.10
2019-05-03T02:39:45.425Z,35.50
2019-05-03T02:42:21.921Z,35.30
2019-05-03T02:44:59.703Z,35.50
2019-05-03T02:47:55.181Z,35.50
2019-05-03T02:50:31.189Z,35.70
2019-05-03T02:53:07.994Z,35.90
2019-05-03T02:55:45.505Z,35.90
2019-05-03T02:58:25.140Z,35.70
2019-05-03T03:01:02.542Z,36.10
2019-05-03T03:03:39.489Z,35.90
2019-05-03T03:06:16.738Z,35.80
2019-05-03T03:08:56.147Z,36.00
2019-05-03T03:11:36.003Z,36.50
2019-05-03T03:14:16.915Z,36.60
2019-05-03T03:16:56.535Z,36.70
2019-05-03T03:19:35.468Z,36.20
2019-05-03T03:22:15.940Z,36.40
2019-05-03T03:24:55.886Z,36.30
2019-05-03T03:27:36.080Z,36.90
2019-05-03T03:30:31.680Z,36.90
2019-05-03T03:33:10.444Z,36.70
2019-05-03T03:35:48.945Z,37.30
2019-05-03T03:38:27.416Z,37.40
2019-05-03T03:41:06.108Z,36.80
2019-05-03T03:43:46.090Z,36.40
2019-05-03T03:46:25.018Z,36.60
2019-05-03T03:49:01.398Z,36.80
2019-05-03T03:51:39.134Z,37.40
2019-05-03T03:54:18.802Z,37.30
2019-05-03T03:57:04.924Z,37.50
2019-05-03T03:59:39.407Z,37.20
2019-05-03T04:02:16.503Z,37.70
2019-05-03T04:04:56.003Z,37.30
2019-05-03T04:07:35.926Z,37.50
2019-05-03T04:10:11.510Z,37.70
2019-05-03T04:12:49.345Z,37.60
2019-05-03T04:15:37.380Z,37.80
2019-05-03T04:18:42.121Z,37.20
2019-05-03T04:21:18.927Z,37.30
2019-05-03T04:23:55.804Z,37.50
2019-05-03T04:26:35.641Z,37.40
2019-05-03T04:29:12.200Z,37.70
2019-05-03T04:31:49.632Z,37.60
2019-05-03T04:34:26.491Z,38.10
2019-05-03T04:37:05.329Z,37.80
2019-05-03T04:39:45.359Z,37.80
2019-05-03T04:42:20.518Z,38.50
2019-05-03T04:44:57.252Z,38.30
2019-05-03T04:47:35.787Z,38.00
2019-05-03T04:50:12.231Z,37.90
2019-05-03T04:52:49.232Z,37.80
2019-05-03T04:55:26.814Z,38.40
2019-05-03T04:58:10.469Z,38.70
2019-05-03T05:00:47.362Z,38.90
2019-05-03T05:03:26.435Z,38.10
2019-05-03T05:06:02.322Z,38.70
2019-05-03T05:08:56.626Z,38.80
2019-05-03T05:11:35.058Z,39.10
2019-05-03T05:14:11.931Z,38.60
2019-05-03T05:16:48.636Z,38.50
2019-05-03T05:19:36.557Z,38.70
2019-05-03T05:22:15.566Z,38.50
2019-05-03T05:24:55.134Z,38.70
2019-05-03T05:27:48.671Z,38.70
2019-05-03T05:30:18.198Z,39.20
2019-05-03T05:32:55.330Z,38.80
2019-05-03T05:35:32.199Z,39.10
2019-05-03T05:38:09.069Z,39.50
2019-05-03T05:40:45.686Z,39.60
2019-05-03T05:43:22.241Z,39.40
2019-05-03T05:45:59.105Z,39.30
2019-05-03T05:48:40.231Z,39.40
2019-05-03T05:51:16.671Z,39.60
2019-05-03T05:53:54.776Z,39.70
2019-05-03T05:56:44.579Z,39.80
2019-05-03T05:59:38.382Z,39.30
2019-05-03T06:02:15.153Z,39.20
2019-05-03T06:04:51.835Z,38.40
2019-05-03T06:07:38.819Z,38.70
2019-05-03T06:10:31.804Z,39.20
2019-05-03T06:13:21.344Z,38.40
2019-05-03T06:16:19.122Z,38.80
2019-05-03T06:19:15.968Z,39.50
2019-05-03T06:22:10.673Z,39.70
2019-05-03T06:24:54.378Z,40.00
2019-05-03T06:27:36.397Z,40.20
2019-05-03T06:30:35.009Z,39.70
2019-05-03T06:33:11.710Z,39.30
2019-05-03T06:35:48.543Z,39.10
2019-05-03T06:38:44.729Z,39.70
2019-05-03T06:41:21.897Z,39.90
2019-05-03T06:43:58.459Z,39.70
2019-05-03T06:46:48.864Z,39.40
2019-05-03T06:49:25.651Z,39.00
2019-05-03T06:52:02.708Z,38.40
2019-05-03T06:54:39.637Z,38.50
2019-05-03T06:57:17.375Z,39.10
2019-05-03T07:00:01.697Z,39.20
2019-05-03T07:02:46.087Z,39.80
2019-05-03T07:05:44.458Z,40.00
2019-05-03T07:08:57.486Z,39.40
2019-05-03T07:11:34.847Z,39.10
2019-05-03T07:14:11.821Z,39.40
2019-05-03T07:16:48.724Z,39.80
2019-05-03T07:19:25.515Z,39.20
2019-05-03T07:22:01.816Z,38.30
2019-05-03T07:24:40.791Z,38.60
2019-05-03T07:27:16.524Z,38.80
2019-05-03T07:29:55.616Z,38.50
2019-05-03T07:32:32.036Z,38.50
2019-05-03T07:35:09.292Z,39.30
2019-05-03T07:37:45.775Z,39.80
2019-05-03T07:40:22.483Z,40.00
2019-05-03T07:42:59.310Z,39.70
2019-05-03T07:45:35.831Z,39.70
2019-05-03T07:48:12.534Z,40.20
2019-05-03T07:50:54.529Z,40.10
2019-05-03T07:53:30.501Z,40.10
2019-05-03T07:56:11.695Z,39.70
2019-05-03T07:59:00.033Z,39.80
2019-05-03T08:01:40.942Z,39.30
2019-05-03T08:04:17.583Z,39.10
2019-05-03T08:06:55.418Z,38.80
2019-05-03T08:09:32.047Z,39.10
2019-05-03T08:12:08.894Z,39.50
2019-05-03T08:14:45.580Z,39.10
2019-05-03T08:17:22.720Z,39.50
2019-05-03T08:19:59.479Z,39.80
2019-05-03T08:22:36.209Z,39.60
2019-05-03T08:25:14.575Z,39.30
2019-05-03T08:28:08.766Z,39.40
2019-05-03T08:31:09.771Z,39.60
2019-05-03T08:33:58.019Z,39.80
2019-05-03T08:36:54.880Z,40.20
2019-05-03T08:39:31.158Z,39.60
2019-05-03T08:42:11.885Z,39.30
2019-05-03T08:44:48.661Z,39.10
2019-05-03T08:47:26.000Z,38.90
2019-05-03T08:50:05.481Z,38.90
2019-05-03T08:52:41.258Z,38.90
2019-05-03T08:55:18.023Z,38.80
2019-05-03T08:57:55.104Z,38.60
2019-05-03T09:00:34.992Z,38.70
2019-05-03T09:03:11.155Z,38.60
2019-05-03T09:05:48.080Z,38.60
2019-05-03T09:08:24.994Z,38.50
2019-05-03T09:11:06.162Z,38.40
2019-05-03T09:14:00.659Z,38.40
2019-05-03T09:16:37.663Z,38.20
2019-05-03T09:19:15.240Z,38.70
2019-05-03T09:21:51.893Z,38.70
2019-05-03T09:24:28.373Z,39.00
2019-05-03T09:27:07.619Z,39.30
2019-05-03T09:29:47.658Z,39.00
2019-05-03T09:32:25.625Z,38.60
2019-05-03T09:35:02.592Z,39.20
2019-05-03T09:37:39.698Z,39.10
2019-05-03T09:40:17.381Z,38.60
2019-05-03T09:42:55.094Z,38.80
2019-05-03T09:45:31.628Z,38.60
2019-05-03T09:48:08.154Z,38.60
2019-05-03T09:50:45.324Z,38.70
2019-05-03T09:53:25.509Z,38.80
2019-05-03T09:56:02.096Z,38.60
2019-05-03T09:58:38.973Z,38.40
2019-05-03T10:01:16.067Z,38.30
2019-05-03T10:03:54.861Z,38.30
2019-05-03T10:06:31.616Z,38.40
2019-05-03T10:09:08.180Z,38.00
2019-05-03T10:11:45.834Z,37.70
2019-05-03T10:14:23.024Z,37.70
2019-05-03T10:17:18.057Z,37.60
2019-05-03T10:19:55.904Z,37.20
2019-05-03T10:22:34.767Z,37.10
2019-05-03T10:25:11.365Z,37.00
2019-05-03T10:27:48.463Z,37.10
2019-05-03T10:30:30.153Z,37.20
2019-05-03T10:33:15.633Z,37.30
2019-05-03T10:35:54.445Z,37.20
2019-05-03T10:38:30.989Z,37.20
2019-05-03T10:41:08.010Z,37.10
2019-05-03T10:43:45.299Z,36.90
2019-05-03T10:46:22.145Z,36.60
2019-05-03T10:48:59.852Z,36.60
2019-05-03T10:51:39.844Z,36.50
2019-05-03T10:54:16.964Z,36.60
2019-05-03T10:56:57.629Z,36.60
2019-05-03T10:59:35.598Z,36.30
2019-05-03T11:02:19.788Z,36.20
2019-05-03T11:04:56.588Z,36.10
2019-05-03T11:07:34.558Z,36.00
2019-05-03T11:10:14.712Z,36.00
2019-05-03T11:12:51.723Z,35.80
2019-05-03T11:15:28.515Z,35.00
2019-05-03T11:18:05.740Z,34.70
2019-05-03T11:20:42.898Z,34.80
2019-05-03T11:23:19.759Z,34.70
2019-05-03T11:26:14.249Z,34.50
2019-05-03T11:28:50.991Z,34.20
2019-05-03T11:31:44.622Z,34.10
2019-05-03T11:34:25.376Z,34.10
2019-05-03T11:37:28.845Z,34.10
2019-05-03T11:40:05.691Z,33.90
2019-05-03T11:42:42.328Z,33.80
2019-05-03T11:45:19.017Z,33.80
2019-05-03T11:47:55.481Z,33.70
2019-05-03T11:50:32.139Z,33.60
2019-05-03T11:53:08.961Z,33.70
2019-05-03T11:55:46.489Z,33.80
2019-05-03T11:58:26.963Z,33.60
2019-05-03T12:01:20.501Z,33.60
2019-05-03T12:04:05.346Z,33.70
2019-05-03T12:06:42.128Z,33.70
2019-05-03T12:09:18.611Z,33.60
2019-05-03T12:11:56.395Z,33.40
2019-05-03T12:14:34.633Z,33.10
2019-05-03T12:17:22.509Z,33.30
2019-05-03T12:19:53.322Z,33.20
2019-05-03T12:22:31.153Z,33.20
2019-05-03T12:25:10.359Z,33.10
2019-05-03T12:27:45.902Z,33.10
2019-05-03T12:30:25.512Z,33.10
2019-05-03T12:33:01.738Z,33.10
2019-05-03T12:35:39.514Z,33.10
2019-05-03T12:38:16.588Z,33.00
2019-05-03T12:40:54.608Z,33.00
2019-05-03T12:43:31.530Z,32.90
2019-05-03T12:46:07.959Z,32.80
2019-05-03T12:48:46.122Z,32.70
2019-05-03T12:51:22.454Z,32.60
2019-05-03T12:53:59.183Z,32.30
2019-05-03T12:56:35.885Z,32.30
2019-05-03T12:59:22.405Z,32.10
2019-05-03T13:02:15.514Z,31.70
2019-05-03T13:04:52.587Z,31.70
2019-05-03T13:07:43.097Z,32.00
2019-05-03T13:10:22.549Z,32.20
2019-05-03T13:12:58.186Z,32.00
2019-05-03T13:15:35.280Z,31.90
2019-05-03T13:18:12.587Z,31.90
2019-05-03T13:20:49.372Z,31.70
2019-05-03T13:23:26.369Z,32.00
2019-05-03T13:26:05.255Z,32.10
2019-05-03T13:28:41.368Z,32.10
2019-05-03T13:31:19.346Z,31.30
2019-05-03T13:33:57.259Z,30.90
2019-05-03T13:36:35.068Z,30.90
2019-05-03T13:39:14.614Z,31.10
2019-05-03T13:41:51.685Z,31.60
2019-05-03T13:44:29.156Z,31.60
2019-05-03T13:47:07.234Z,31.70
2019-05-03T13:49:45.043Z,31.60
2019-05-03T13:52:24.986Z,31.70
2019-05-03T13:55:01.184Z,31.80
2019-05-03T13:57:38.826Z,31.10
2019-05-03T14:00:17.849Z,30.70
2019-05-03T14:02:56.338Z,30.70
2019-05-03T14:05:35.305Z,30.90
2019-05-03T14:08:11.972Z,30.80
2019-05-03T14:10:49.746Z,30.70
2019-05-03T14:13:28.586Z,30.80
2019-05-03T14:16:06.708Z,30.70
2019-05-03T14:18:46.428Z,30.80
2019-05-03T14:21:34.506Z,31.00
2019-05-03T14:24:15.978Z,31.20
2019-05-03T14:26:55.096Z,31.40
2019-05-03T14:29:34.755Z,31.40
2019-05-03T14:32:25.453Z,31.50
2019-05-03T14:34:54.744Z,30.90
2019-05-03T14:37:32.034Z,30.70
2019-05-03T14:40:10.593Z,30.30
2019-05-03T14:42:48.164Z,30.70
2019-05-03T14:45:25.565Z,31.10
2019-05-03T14:48:02.669Z,31.00
2019-05-03T14:50:39.394Z,31.10
2019-05-03T14:53:16.176Z,30.80
2019-05-03T14:55:59.039Z,30.60
2019-05-03T14:59:00.538Z,30.70
2019-05-03T15:01:43.043Z,30.50
2019-05-03T15:04:19.778Z,30.50
2019-05-03T15:06:57.958Z,30.50
2019-05-03T15:09:35.346Z,30.40
2019-05-03T15:12:12.847Z,30.50
2019-05-03T15:14:49.770Z,30.50
2019-05-03T15:17:26.630Z,30.70
2019-05-03T15:20:03.272Z,30.70
2019-05-03T15:22:40.042Z,30.70
2019-05-03T15:25:17.206Z,30.60
2019-05-03T15:27:55.385Z,30.50
2019-05-03T15:30:32.438Z,30.60
2019-05-03T15:33:09.546Z,30.80
2019-05-03T15:35:46.742Z,30.70
2019-05-03T15:38:23.610Z,30.60
2019-05-03T15:41:00.805Z,30.40
2019-05-03T15:43:50.153Z,30.60
2019-05-03T15:46:48.054Z,30.60
2019-05-03T15:49:27.495Z,30.60
2019-05-03T15:52:04.583Z,30.20
2019-05-03T15:54:41.078Z,30.30
2019-05-03T15:57:17.746Z,30.30
2019-05-03T15:59:55.107Z,30.30
2019-05-03T16:02:31.843Z,30.10
2019-05-03T16:05:09.016Z,30.40
2019-05-03T16:07:47.004Z,30.50
2019-05-03T16:10:24.926Z,30.30
2019-05-03T16:13:01.128Z,30.20
2019-05-03T16:15:37.912Z,30.30
2019-05-03T16:18:14.932Z,30.10
2019-05-03T16:20:52.115Z,29.80
2019-05-03T16:23:29.373Z,30.20
2019-05-03T16:26:05.953Z,30.20
2019-05-03T16:29:15.025Z,30.20
2019-05-03T16:31:51.960Z,30.20
2019-05-03T16:34:28.526Z,30.40
2019-05-03T16:37:05.046Z,30.60
2019-05-03T16:39:45.408Z,30.60
2019-05-03T16:42:24.456Z,30.60
2019-05-03T16:45:00.297Z,30.50
2019-05-03T16:47:37.063Z,30.50
2019-05-03T16:50:14.478Z,30.50
2019-05-03T16:52:51.422Z,30.50
2019-05-03T16:55:28.302Z,30.50
2019-05-03T16:58:05.078Z,30.50
2019-05-03T17:00:41.689Z,30.60
2019-05-03T17:03:20.065Z,30.50
2019-05-03T17:06:15.051Z,30.50
2019-05-03T17:09:16.318Z,30.50
2019-05-03T17:12:15.840Z,30.40
2019-05-03T17:14:54.375Z,30.40
2019-05-03T17:17:30.919Z,30.40
2019-05-03T17:20:08.019Z,30.30
2019-05-03T17:22:45.103Z,30.30
2019-05-03T17:25:22.237Z,30.30
2019-05-03T17:27:59.078Z,30.20
2019-05-03T17:30:37.389Z,30.20
2019-05-03T17:33:16.018Z,30.30
2019-05-03T17:35:52.200Z,30.30
2019-05-03T17:38:28.980Z,30.30
2019-05-03T17:41:34.738Z,30.30
2019-05-03T17:44:16.353Z,30.30
2019-05-03T17:46:54.826Z,30.20
2019-05-03T17:49:31.335Z,30.20
2019-05-03T17:52:26.153Z,30.30
2019-05-03T17:55:36.398Z,30.30
2019-05-03T17:58:21.651Z,30.30
2019-05-03T18:01:08.538Z,30.20
2019-05-03T18:03:47.110Z,30.30
2019-05-03T18:06:27.849Z,30.30
2019-05-03T18:09:22.789Z,30.30
2019-05-03T18:12:01.377Z,30.20
2019-05-03T18:14:38.207Z,30.20
2019-05-03T18:17:14.909Z,30.00
2019-05-03T18:19:51.903Z,30.10
2019-05-03T18:22:28.879Z,30.00
2019-05-03T18:25:06.465Z,30.10
2019-05-03T18:27:44.609Z,30.10
2019-05-03T18:30:21.550Z,30.10
2019-05-03T18:32:58.584Z,30.20
2019-05-03T18:35:35.350Z,30.20
2019-05-03T18:38:12.196Z,30.00
2019-05-03T18:40:48.995Z,29.80
2019-05-03T18:43:43.003Z,29.80
2019-05-03T18:46:27.981Z,29.70
2019-05-03T18:49:04.675Z,29.70
2019-05-03T18:51:41.429Z,29.70
2019-05-03T18:54:18.404Z,29.80
2019-05-03T18:56:55.774Z,29.90
2019-05-03T18:59:32.583Z,29.90
2019-05-03T19:02:09.176Z,29.90
2019-05-03T19:04:54.790Z,29.80
2019-05-03T19:08:05.198Z,29.70
2019-05-03T19:10:51.465Z,29.80
2019-05-03T19:13:38.179Z,29.70
2019-05-03T19:16:35.026Z,29.50
2019-05-03T19:19:11.941Z,29.60
2019-05-03T19:21:48.467Z,29.60
2019-05-03T19:24:25.636Z,29.60
2019-05-03T19:27:02.172Z,29.70
2019-05-03T19:29:38.997Z,29.70
2019-05-03T19:32:15.878Z,29.70
2019-05-03T19:34:54.738Z,29.50
2019-05-03T19:37:30.899Z,29.70
2019-05-03T19:40:08.436Z,29.70
2019-05-03T19:42:45.375Z,29.60
2019-05-03T19:45:25.420Z,29.60
2019-05-03T19:48:02.735Z,29.60
2019-05-03T19:50:39.900Z,29.40
2019-05-03T19:53:35.954Z,29.30
2019-05-03T19:56:14.651Z,29.00
2019-05-03T19:58:51.159Z,29.10
2019-05-03T20:01:45.833Z,29.30
2019-05-03T20:04:39.009Z,29.20
2019-05-03T20:07:40.230Z,29.00
2019-05-03T20:10:18.111Z,29.20
2019-05-03T20:12:55.092Z,29.20
2019-05-03T20:15:32.071Z,29.40
2019-05-03T20:18:08.707Z,29.50
2019-05-03T20:20:45.547Z,29.60
2019-05-03T20:23:22.205Z,29.60
2019-05-03T20:25:58.796Z,29.60
2019-05-03T20:28:35.703Z,29.60
2019-05-03T20:31:12.414Z,29.60
2019-05-03T20:33:49.298Z,29.60
2019-05-03T20:36:26.218Z,29.50
2019-05-03T20:39:05.350Z,29.60
2019-05-03T20:41:42.020Z,29.60
2019-05-03T20:44:28.591Z,29.50
2019-05-03T20:47:17.214Z,29.60
2019-05-03T20:50:11.469Z,29.60
2019-05-03T20:52:48.907Z,29.50
2019-05-03T20:55:25.779Z,29.40
2019-05-03T20:58:02.645Z,29.40
2019-05-03T21:00:39.400Z,29.50
2019-05-03T21:03:16.711Z,29.40
2019-05-03T21:05:55.116Z,29.40
2019-05-03T21:08:31.641Z,29.40
2019-05-03T21:11:08.389Z,29.40
2019-05-03T21:13:45.137Z,29.40
2019-05-03T21:16:37.023Z,29.40
2019-05-03T21:19:30.627Z,29.30
2019-05-03T21:22:24.943Z,29.40
2019-05-03T21:25:32.102Z,29.30
2019-05-03T21:28:08.768Z,29.20
2019-05-03T21:30:45.447Z,29.10
2019-05-03T21:33:22.185Z,29.10
2019-05-03T21:35:59.026Z,29.30
2019-05-03T21:38:36.473Z,29.20
2019-05-03T21:41:15.462Z,29.10
2019-05-03T21:43:51.386Z,29.20
2019-05-03T21:46:44.901Z,29.20
2019-05-03T21:49:25.335Z,29.20
2019-05-03T21:52:02.194Z,29.20
2019-05-03T21:54:39.095Z,29.20
2019-05-03T21:57:16.559Z,29.30
2019-05-03T21:59:54.955Z,29.20
2019-05-03T22:02:31.501Z,29.10
2019-05-03T22:05:08.671Z,29.10
2019-05-03T22:07:45.518Z,29.00
2019-05-03T22:10:25.431Z,28.90
2019-05-03T22:13:01.626Z,28.90
2019-05-03T22:15:44.933Z,29.10
2019-05-03T22:18:26.539Z,29.00
2019-05-03T22:21:24.222Z,28.60
2019-05-03T22:24:07.857Z,28.30
2019-05-03T22:26:59.726Z,28.70
2019-05-03T22:29:36.269Z,28.80
2019-05-03T22:32:13.160Z,28.50
2019-05-03T22:34:50.100Z,28.50
2019-05-03T22:37:28.500Z,28.60
2019-05-03T22:40:05.469Z,28.70
2019-05-03T22:42:44.795Z,28.70
2019-05-03T22:45:21.786Z,28.60
2019-05-03T22:47:58.641Z,28.40
2019-05-03T22:50:35.431Z,28.20
2019-05-03T22:53:14.659Z,28.10
2019-05-03T22:55:51.743Z,28.30
2019-05-03T22:58:28.224Z,28.60
2019-05-03T23:01:05.274Z,28.70
2019-05-03T23:03:46.945Z,28.60
2019-05-03T23:06:25.159Z,28.70
2019-05-03T23:09:02.150Z,28.70
2019-05-03T23:11:40.363Z,28.70
2019-05-03T23:14:17.096Z,28.70
2019-05-03T23:16:54.083Z,28.80
2019-05-03T23:19:31.379Z,28.80
2019-05-03T23:22:16.993Z,28.90
2019-05-03T23:24:54.782Z,28.90
2019-05-03T23:27:35.382Z,29.00
2019-05-03T23:30:12.490Z,29.00
2019-05-03T23:32:49.560Z,29.10
2019-05-03T23:35:26.427Z,29.10
2019-05-03T23:38:04.840Z,28.80
2019-05-03T23:40:41.591Z,28.60
2019-05-03T23:43:18.392Z,28.70
2019-05-03T23:45:55.398Z,28.80
2019-05-03T23:48:32.494Z,28.70
2019-05-03T23:51:10.741Z,28.80
2019-05-03T23:53:47.486Z,28.80
2019-05-03T23:56:25.474Z,29.00
2019-05-03T23:59:05.384Z,29.00
